TAF Text Data
IDs:
Format:
Raw Decoded Include METAR

Data at: 0645 UTC 06 Dec 2021

Region: TOP
KATL 052201Z 0522/0624 08003KT P6SM SCT040 BKN050 BKN070
  FM060200 14005KT P6SM SCT040 BKN250
  FM060800 18006KT P6SM BKN040
  FM061200 21009KT P6SM SCT008 BKN012
  FM061600 23010KT P6SM VCSH BKN012


KBOS 052109Z 0521/0624 26005KT P6SM BKN250
  FM052300 12007KT P6SM BKN250
  FM060500 14010KT P6SM BKN120
  FM061200 14010G18KT P6SM OVC015
  FM061400 15011G18KT 2SM -SHRA BR OVC008
  FM061700 19013G26KT P6SM BKN015
  FM062000 21017G32KT P6SM BKN015


KBWI 052101Z 0521/0624 11006KT P6SM BKN070 BKN250
  FM060600 00000KT P6SM SCT020 OVC030
  FM061200 19005KT P6SM BKN030 WS020/22035KT
  FM061400 20010G24KT P6SM SCT020 BKN045


KCLE 052056Z 0521/0624 16017KT P6SM OVC025 WS020/20055KT
  FM060300 19020G30KT P6SM -SHRA OVC020
  FM060900 19014G24KT 4SM RA SCT005 BKN015
  FM061300 25015G25KT P6SM OVC015
  FM061600 27020G30KT P6SM BKN030


KCLT 052201Z 0522/0624 13007KT P6SM FEW030 SCT050
  FM060000 14004KT P6SM BKN023
  FM060700 19004KT P6SM FEW004 BKN015
  FM061400 21008G16KT P6SM SCT050
  PROB30 0623/0624 4SM -SHRA BR OVC025


KCVG 052133Z 0522/0624 15012G18KT P6SM BKN035
  TEMPO 0522/0524 5SM -SHRA
  FM060000 18013G21KT P6SM VCSH OVC025 WS020/20045KT
  FM060300 19016G25KT 5SM -SHRA BR OVC018 WS020/22045KT
  FM060700 21014G25KT 3SM -SHRA BR OVC015
  FM061200 29015G26KT P6SM OVC035
  FM061700 29016G28KT P6SM BKN040


KDCA 052101Z 0521/0624 12006KT P6SM BKN070 BKN250
  FM060200 12004KT P6SM BKN035 BKN150
  FM061200 19007KT P6SM FEW050 SCT090 WS020/22035KT
  FM061400 20013G27KT P6SM SCT035 BKN070


KDEN 052049Z 0521/0624 30017G32KT P6SM SCT150 BKN220
  FM052115 04017G35KT P6SM FEW030 BKN220
  FM060130 03013KT P6SM SCT030 BKN220
  FM060600 07010KT P6SM SCT030 SCT200
  FM061200 11006KT P6SM SCT030 SCT220
  FM061500 14011KT P6SM FEW140 SCT220
  FM062100 04008KT P6SM SCT140 SCT220


KDFW 052102Z 0521/0624 20015G25KT P6SM SCT025 BKN035
  FM052300 19014KT P6SM BKN060 OVC250
  FM060700 21011KT P6SM VCSH FEW090 SCT150 BKN250 WS020/24040KT
  FM060900 32012KT P6SM VCTS SCT050CB BKN150CB
  FM061000 01020G30KT P6SM VCTS BKN040CB
  FM061200 02021G32KT P6SM BKN150
  FM062200 03011KT P6SM FEW250


KDTW 052101Z 0521/0624 11013G20KT 5SM -RA BKN035 OVC150
  FM052200 16013G23KT 4SM -RA BR SCT025 OVC040
  FM060000 18013G20KT 3SM RA BR SCT010 OVC020 WS020/20045KT
  FM060200 20013KT 2SM RA BR OVC007 WS020/23045KT
  FM060600 23014G21KT 4SM -RA BR BKN009
  FM061200 25016G28KT P6SM BKN020
  FM061500 26019G35KT P6SM OVC035


KEWR 052041Z 0521/0624 VRB05KT P6SM SCT080 BKN170
  FM052200 13006KT P6SM SCT050 BKN150
  FM060300 13006KT P6SM SCT025 BKN100
  FM060600 13006KT 6SM -SHRA BR SCT007 BKN025
  FM060900 13007KT 3SM -SHRA BR OVC007
  FM061100 16006KT 2SM -SHRA BR OVC004 WS020/21042KT
  FM061400 20012G18KT P6SM BKN015
  FM061900 22016G24KT P6SM BKN015 BKN050
  PROB30 0620/0624 5SM -SHRA OVC015


KFLL 052051Z 0521/0624 11008KT P6SM SCT030 SCT050
  FM052200 12005KT P6SM FEW025 FEW045
  FM060500 12004KT P6SM SCT030 BKN040
  FM061500 14010KT P6SM SCT030 BKN050


KIAD 052101Z 0521/0624 14006KT P6SM BKN070 BKN250
  FM060300 16005KT P6SM SCT030 BKN040
  FM061100 19009KT P6SM SCT050 BKN090 WS020/22040KT
  FM061300 19011G23KT P6SM FEW050 SCT080
  FM061600 20014G30KT P6SM SCT050 BKN070
  FM062300 30014G24KT P6SM SCT040 BKN050


KIAH 052124Z 0521/0624 18010KT P6SM SCT035 BKN250
  TEMPO 0601/0604 BKN027
  FM060400 16008KT P6SM BKN025
  FM060700 16008KT P6SM OVC010
  FM061000 18005KT 5SM BR VCSH BKN005 BKN015
  FM061600 22009KT P6SM VCTS BKN015CB BKN250
  FM061800 35010KT 5SM TSRA BKN020CB OVC040
  FM062100 36011G16KT P6SM VCSH OVC018


KJFK 052041Z 0521/0624 VRB05KT P6SM SCT080 BKN170
  FM052200 13007KT P6SM SCT060 BKN150
  FM060300 13010KT P6SM SCT025 BKN100
  FM060600 14010KT 6SM -SHRA BR SCT007 BKN025
  FM060900 14012KT 3SM -SHRA BR OVC007
  FM061100 18007KT 2SM -SHRA BR OVC004 WS020/21042KT
  FM061400 19015G21KT P6SM BKN015
  FM061900 20016G26KT P6SM BKN015 BKN050
  PROB30 0620/0624 5SM -SHRA OVC015


KLAS 052018Z 0520/0624 VRB06KT P6SM SKC
  FM052200 34008KT P6SM FEW250
  FM060800 VRB06KT P6SM SCT250
  FM061900 09004KT P6SM SCT250


KLAX 052111Z 0521/0624 24008KT 6SM HZ SKC
  FM060400 VRB03KT P6SM SKC
  FM060900 VRB03KT 2SM BR BKN004
  FM061600 VRB03KT 3SM HZ SCT005
  FM062000 26010KT 6SM HZ SKC


KLGA 052041Z 0521/0624 VRB05KT P6SM SCT080 BKN170
  FM052200 10006KT P6SM SCT050 BKN150
  FM060300 13008KT P6SM SCT025 BKN100
  FM060600 14008KT 6SM -SHRA BR SCT007 BKN025
  FM060900 14010KT 3SM -SHRA BR OVC007
  FM061100 17006KT 2SM -SHRA BR OVC004 WS020/21042KT
  FM061400 19014G20KT P6SM BKN015
  FM061900 20016G25KT P6SM BKN015 BKN050
  PROB30 0620/0624 5SM -SHRA OVC015


KMCO 052102Z 0521/0624 10006KT P6SM BKN050
  FM060000 VRB03KT P6SM SCT060 SCT250
  TEMPO 0610/0613 3SM BR SCT010
  FM061400 20005KT P6SM FEW010 SCT045


KMDW 052103Z 0521/0624 17009KT 2SM SHRADZ BR OVC004
  FM052200 19005KT 1 1/2SM -DZ BR OVC004 WS015/22045KT
  FM060100 25011KT 5SM -SHRA BR BKN006 OVC010
  FM060400 27016G27KT P6SM SCT010 SCT250
  FM060800 28021G39KT P6SM SCT025 BKN035
  PROB30 0610/0615 P6SM -SHSN BKN025
  FM061600 28018G30KT P6SM SCT035


KMEM 052058Z 0521/0624 20012KT P6SM VCSH SCT025 BKN030 OVC080
  FM060000 19014G21KT P6SM SCT015 BKN035 OVC100 WS020/20045KT
  FM060600 23014G20KT 6SM -SHRA VCTS SCT015 BKN035CB WS020/21045KT
  FM061100 29013G20KT P6SM -RA BKN030
  FM061400 35014G22KT P6SM BKN050


KMIA 052051Z 0521/0624 11008KT P6SM SCT030 SCT050
  FM052200 12005KT P6SM FEW025 FEW045
  FM060400 VRB03KT P6SM SCT030 BKN040
  FM061500 14009KT P6SM SCT030 BKN050


KMSP 052104Z 0521/0624 24017G22KT P6SM BKN035
  FM060200 30024G35KT 6SM BR BKN017
  TEMPO 0602/0606 4SM -SN OVC025
  FM060900 31024G35KT P6SM BKN020
  FM061100 31018G25KT P6SM SCT040
  FM061700 30017G25KT P6SM FEW180


KORD 052103Z 0521/0624 17009KT 2SM SHRADZ BR OVC004
  FM052200 19005KT 1 1/2SM -DZ BR OVC004 WS015/22040KT
  FM060100 25011KT 5SM -SHRA BR BKN006 OVC010
  FM060400 27016G27KT P6SM SCT010 SCT250
  FM060700 28021G39KT P6SM SCT025 BKN035
  PROB30 0610/0615 P6SM -SHSN BKN025
  FM061600 28019G32KT P6SM SCT035


KPDX 052104Z 0521/0618 31003KT P6SM SCT025 BKN250
  FM060200 07004KT P6SM BKN150
  FM061000 12006KT P6SM -RA SCT020 BKN035
  FM061500 12011KT P6SM -RA OVC026


KPHL 052056Z 0521/0624 13005KT P6SM SCT060 BKN200
  FM060500 10004KT P6SM VCSH BKN025 OVC040
  FM060700 VRB03KT P6SM -SHRA OVC012
  FM061000 VRB04KT 5SM -SHRA BR OVC006
  FM061500 17006KT 6SM BR BKN012 OVC025 WS020/21042KT
  FM061700 20012G20KT P6SM SCT020 BKN040


KPHX 052046Z 0521/0624 26005KT P6SM SKC
  FM060400 10005KT P6SM SKC
  FM062200 20005KT P6SM FEW250


KPIT 052105Z 0521/0624 11008KT P6SM BKN060
  FM060000 16010G17KT P6SM OVC050 WS020/19040KT
  FM060500 19011KT P6SM VCSH BKN050 WS020/20045KT
  FM061100 20012G23KT 5SM -SHRA OVC020 WS020/21045KT
  FM061600 26013G26KT 6SM -SHRA OVC025
  FM061800 27014G25KT P6SM VCSH BKN050


KSAN 052045Z 0521/0624 29007KT P6SM FEW017
  FM060000 31004KT P6SM SKC
  FM060400 VRB03KT P6SM SKC
  FM061100 VRB04KT P6SM SCT008
  FM061900 22007KT P6SM SKC


KSEA 052102Z 0521/0624 35006KT P6SM SCT060 SCT200
  FM060100 VRB03KT P6SM BKN100
  FM060800 VRB03KT P6SM VCSH BKN060 OVC100
  FM060900 12004KT P6SM -RA OVC040
  FM061600 12005KT P6SM -RA OVC025


KSFO 052102Z 0521/0624 VRB04KT P6SM FEW008 SCT200
  FM052200 29012KT P6SM FEW015
  FM060400 33008KT P6SM FEW012 SCT250
  FM061000 VRB05KT 6SM HZ SCT008 SCT150 BKN250 WS020/31040KT
  FM062200 27009KT 6SM HZ SCT015 OVC150 WS020/31040KT


KSLC 052044Z 0521/0624 33010G20KT P6SM FEW200
  FM060100 15005KT P6SM FEW250
  FM062000 34008KT P6SM SCT100 BKN250


KSTL 052131Z 0522/0624 20014G24KT P6SM SCT030 BKN250
  FM060200 25010G16KT P6SM VCSH BKN035
  FM060500 31015G25KT P6SM SCT080
  FM062000 31010KT P6SM SCT250


KTPA 052103Z 0521/0624 28005KT P6SM FEW050 SCT250
  FM060000 34004KT P6SM SCT045 BKN250
  FM060700 VRB03KT P6SM FEW020 SCT200
  FM061500 17004KT P6SM BKN150